sensor_id;sensor_type;location;lat;lon;timestamp;P1;durP1;ratioP1;P2;durP2;ratioP2
29210;SDS011;16250;49.932;10.980;2024-03-07T00:00:10;19.75;;;17.67;;
29210;SDS011;16250;49.932;10.980;2024-03-07T00:02:54;19.70;;;17.70;;
29210;SDS011;16250;49.932;10.980;2024-03-07T00:05:36;18.23;;;16.38;;
29210;SDS011;16250;49.932;10.980;2024-03-07T00:08:11;18.33;;;16.52;;
29210;SDS011;16250;49.932;10.980;2024-03-07T00:10:38;17.92;;;16.23;;
29210;SDS011;16250;49.932;10.980;2024-03-07T00:13:03;18.40;;;16.42;;
29210;SDS011;16250;49.932;10.980;2024-03-07T00:15:39;18.38;;;16.48;;
29210;SDS011;16250;49.932;10.980;2024-03-07T00:18:05;17.92;;;16.23;;
29210;SDS011;16250;49.932;10.980;2024-03-07T00:20:34;17.45;;;15.70;;
29210;SDS011;16250;49.932;10.980;2024-03-07T00:23:07;17.08;;;15.30;;
29210;SDS011;16250;49.932;10.980;2024-03-07T00:25:42;19.38;;;16.58;;
29210;SDS011;16250;49.932;10.980;2024-03-07T00:28:08;17.70;;;15.90;;
29210;SDS011;16250;49.932;10.980;2024-03-07T00:30:33;17.30;;;15.63;;
29210;SDS011;16250;49.932;10.980;2024-03-07T00:33:00;20.42;;;17.08;;
29210;SDS011;16250;49.932;10.980;2024-03-07T00:35:26;18.30;;;16.42;;
29210;SDS011;16250;49.932;10.980;2024-03-07T00:37:52;18.25;;;16.52;;
29210;SDS011;16250;49.932;10.980;2024-03-07T00:40:19;20.35;;;17.67;;
29210;SDS011;16250;49.932;10.980;2024-03-07T00:42:45;19.27;;;17.27;;
29210;SDS011;16250;49.932;10.980;2024-03-07T00:45:11;18.17;;;16.27;;
29210;SDS011;16250;49.932;10.980;2024-03-07T00:47:36;19.58;;;17.58;;
29210;SDS011;16250;49.932;10.980;2024-03-07T00:50:04;18.15;;;16.25;;
29210;SDS011;16250;49.932;10.980;2024-03-07T00:52:34;18.73;;;16.83;;
29210;SDS011;16250;49.932;10.980;2024-03-07T00:55:00;19.58;;;17.58;;
29210;SDS011;16250;49.932;10.980;2024-03-07T00:57:28;22.15;;;19.77;;
29210;SDS011;16250;49.932;10.980;2024-03-07T00:59:58;20.63;;;18.58;;
29210;SDS011;16250;49.932;10.980;2024-03-07T01:02:24;24.10;;;21.50;;
29210;SDS011;16250;49.932;10.980;2024-03-07T01:04:52;24.00;;;21.55;;
29210;SDS011;16250;49.932;10.980;2024-03-07T01:07:19;23.90;;;21.50;;
29210;SDS011;16250;49.932;10.980;2024-03-07T01:09:46;24.13;;;21.73;;
29210;SDS011;16250;49.932;10.980;2024-03-07T01:12:13;24.55;;;22.02;;
29210;SDS011;16250;49.932;10.980;2024-03-07T01:14:39;24.67;;;22.02;;
29210;SDS011;16250;49.932;10.980;2024-03-07T01:17:08;25.70;;;23.10;;
29210;SDS011;16250;49.932;10.980;2024-03-07T01:19:34;24.95;;;22.40;;
29210;SDS011;16250;49.932;10.980;2024-03-07T01:21:59;24.88;;;22.20;;
29210;SDS011;16250;49.932;10.980;2024-03-07T01:24:25;24.67;;;22.25;;
29210;SDS011;16250;49.932;10.980;2024-03-07T01:26:51;24.60;;;22.10;;
29210;SDS011;16250;49.932;10.980;2024-03-07T01:29:17;25.58;;;22.98;;
29210;SDS011;16250;49.932;10.980;2024-03-07T01:31:47;24.60;;;22.05;;
29210;SDS011;16250;49.932;10.980;2024-03-07T01:34:16;25.33;;;22.73;;
29210;SDS011;16250;49.932;10.980;2024-03-07T01:36:45;26.08;;;23.38;;
29210;SDS011;16250;49.932;10.980;2024-03-07T01:39:13;25.48;;;22.98;;
29210;SDS011;16250;49.932;10.980;2024-03-07T01:41:39;26.75;;;23.95;;
29210;SDS011;16250;49.932;10.980;2024-03-07T01:44:05;24.80;;;22.35;;
29210;SDS011;16250;49.932;10.980;2024-03-07T01:46:34;26.00;;;23.38;;
29210;SDS011;16250;49.932;10.980;2024-03-07T01:49:07;25.30;;;22.70;;
29210;SDS011;16250;49.932;10.980;2024-03-07T01:51:34;24.40;;;22.00;;
29210;SDS011;16250;49.932;10.980;2024-03-07T01:54:05;25.15;;;22.73;;
29210;SDS011;16250;49.932;10.980;2024-03-07T01:56:33;25.20;;;22.58;;
29210;SDS011;16250;49.932;10.980;2024-03-07T01:59:00;26.10;;;23.33;;
29210;SDS011;16250;49.932;10.980;2024-03-07T02:01:30;27.13;;;24.42;;
29210;SDS011;16250;49.932;10.980;2024-03-07T02:03:58;28.52;;;24.80;;
29210;SDS011;16250;49.932;10.980;2024-03-07T02:06:26;26.88;;;24.08;;
29210;SDS011;16250;49.932;10.980;2024-03-07T02:08:55;27.60;;;24.88;;
29210;SDS011;16250;49.932;10.980;2024-03-07T02:11:20;27.45;;;24.52;;
29210;SDS011;16250;49.932;10.980;2024-03-07T02:13:46;27.23;;;24.20;;
29210;SDS011;16250;49.932;10.980;2024-03-07T02:16:13;28.33;;;25.35;;
29210;SDS011;16250;49.932;10.980;2024-03-07T02:18:45;27.17;;;24.48;;
29210;SDS011;16250;49.932;10.980;2024-03-07T02:21:11;29.73;;;26.13;;
29210;SDS011;16250;49.932;10.980;2024-03-07T02:23:40;27.90;;;25.02;;
29210;SDS011;16250;49.932;10.980;2024-03-07T02:26:10;26.40;;;23.73;;
29210;SDS011;16250;49.932;10.980;2024-03-07T02:28:40;28.10;;;25.13;;
29210;SDS011;16250;49.932;10.980;2024-03-07T02:31:06;27.52;;;24.63;;
29210;SDS011;16250;49.932;10.980;2024-03-07T02:33:34;27.45;;;24.50;;
29210;SDS011;16250;49.932;10.980;2024-03-07T02:36:04;27.55;;;24.55;;
29210;SDS011;16250;49.932;10.980;2024-03-07T02:38:54;27.77;;;24.98;;
29210;SDS011;16250;49.932;10.980;2024-03-07T02:41:24;27.58;;;24.63;;
29210;SDS011;16250;49.932;10.980;2024-03-07T02:43:50;27.55;;;24.67;;
29210;SDS011;16250;49.932;10.980;2024-03-07T02:46:20;27.27;;;24.42;;
29210;SDS011;16250;49.932;10.980;2024-03-07T02:48:49;27.42;;;24.60;;
29210;SDS011;16250;49.932;10.980;2024-03-07T02:51:15;26.83;;;23.70;;
29210;SDS011;16250;49.932;10.980;2024-03-07T02:53:41;26.48;;;23.60;;
29210;SDS011;16250;49.932;10.980;2024-03-07T02:56:14;25.75;;;22.75;;
29210;SDS011;16250;49.932;10.980;2024-03-07T02:58:44;25.63;;;22.67;;
29210;SDS011;16250;49.932;10.980;2024-03-07T03:01:17;24.42;;;21.77;;
29210;SDS011;16250;49.932;10.980;2024-03-07T03:03:47;24.90;;;22.30;;
29210;SDS011;16250;49.932;10.980;2024-03-07T03:06:15;25.15;;;22.38;;
29210;SDS011;16250;49.932;10.980;2024-03-07T03:08:41;23.70;;;21.35;;
29210;SDS011;16250;49.932;10.980;2024-03-07T03:11:08;26.00;;;22.63;;
29210;SDS011;16250;49.932;10.980;2024-03-07T03:13:41;24.15;;;21.65;;
29210;SDS011;16250;49.932;10.980;2024-03-07T03:16:06;24.02;;;21.23;;
29210;SDS011;16250;49.932;10.980;2024-03-07T03:18:43;23.95;;;21.45;;
29210;SDS011;16250;49.932;10.980;2024-03-07T03:21:09;23.50;;;20.92;;
29210;SDS011;16250;49.932;10.980;2024-03-07T03:23:48;23.10;;;20.67;;
29210;SDS011;16250;49.932;10.980;2024-03-07T03:26:22;22.98;;;20.48;;
29210;SDS011;16250;49.932;10.980;2024-03-07T03:28:53;24.15;;;21.00;;
29210;SDS011;16250;49.932;10.980;2024-03-07T03:31:19;24.15;;;21.55;;
29210;SDS011;16250;49.932;10.980;2024-03-07T03:33:49;24.30;;;20.17;;
29210;SDS011;16250;49.932;10.980;2024-03-07T03:36:22;22.88;;;20.40;;
29210;SDS011;16250;49.932;10.980;2024-03-07T03:38:51;23.38;;;20.95;;
29210;SDS011;16250;49.932;10.980;2024-03-07T03:41:17;21.75;;;19.23;;
29210;SDS011;16250;49.932;10.980;2024-03-07T03:43:46;21.38;;;19.20;;
29210;SDS011;16250;49.932;10.980;2024-03-07T03:46:15;21.40;;;19.10;;
29210;SDS011;16250;49.932;10.980;2024-03-07T03:48:47;22.65;;;20.13;;
29210;SDS011;16250;49.932;10.980;2024-03-07T03:51:16;22.48;;;20.10;;
29210;SDS011;16250;49.932;10.980;2024-03-07T03:53:42;24.02;;;20.58;;
29210;SDS011;16250;49.932;10.980;2024-03-07T03:56:12;24.10;;;20.05;;
29210;SDS011;16250;49.932;10.980;2024-03-07T03:58:41;22.17;;;19.85;;
29210;SDS011;16250;49.932;10.980;2024-03-07T04:01:07;21.88;;;19.02;;
29210;SDS011;16250;49.932;10.980;2024-03-07T04:03:39;22.25;;;19.88;;
29210;SDS011;16250;49.932;10.980;2024-03-07T04:06:05;22.85;;;20.33;;
29210;SDS011;16250;49.932;10.980;2024-03-07T04:08:33;24.23;;;20.40;;
29210;SDS011;16250;49.932;10.980;2024-03-07T04:11:02;23.23;;;19.60;;
29210;SDS011;16250;49.932;10.980;2024-03-07T04:13:30;22.48;;;19.92;;
29210;SDS011;16250;49.932;10.980;2024-03-07T04:15:57;23.15;;;20.00;;
29210;SDS011;16250;49.932;10.980;2024-03-07T04:18:34;24.20;;;19.70;;
29210;SDS011;16250;49.932;10.980;2024-03-07T04:21:00;22.92;;;19.60;;
29210;SDS011;16250;49.932;10.980;2024-03-07T04:23:26;23.27;;;20.50;;
29210;SDS011;16250;49.932;10.980;2024-03-07T04:25:54;23.40;;;19.92;;
29210;SDS011;16250;49.932;10.980;2024-03-07T04:28:21;24.38;;;21.38;;
29210;SDS011;16250;49.932;10.980;2024-03-07T04:30:49;25.15;;;21.38;;
29210;SDS011;16250;49.932;10.980;2024-03-07T04:33:18;25.85;;;21.63;;
29210;SDS011;16250;49.932;10.980;2024-03-07T04:35:49;23.38;;;20.50;;
29210;SDS011;16250;49.932;10.980;2024-03-07T04:38:18;25.00;;;21.17;;
29210;SDS011;16250;49.932;10.980;2024-03-07T04:40:46;25.38;;;21.88;;
29210;SDS011;16250;49.932;10.980;2024-03-07T04:43:13;24.05;;;21.08;;
29210;SDS011;16250;49.932;10.980;2024-03-07T04:45:52;25.55;;;22.58;;
29210;SDS011;16250;49.932;10.980;2024-03-07T04:48:19;24.60;;;20.75;;
29210;SDS011;16250;49.932;10.980;2024-03-07T04:50:44;24.42;;;21.50;;
29210;SDS011;16250;49.932;10.980;2024-03-07T04:53:10;23.90;;;20.52;;
29210;SDS011;16250;49.932;10.980;2024-03-07T04:55:35;23.88;;;20.20;;
29210;SDS011;16250;49.932;10.980;2024-03-07T04:58:00;23.08;;;20.20;;
29210;SDS011;16250;49.932;10.980;2024-03-07T05:00:26;23.38;;;19.95;;
29210;SDS011;16250;49.932;10.980;2024-03-07T05:02:51;23.58;;;20.95;;
29210;SDS011;16250;49.932;10.980;2024-03-07T05:05:17;24.05;;;21.00;;
29210;SDS011;16250;49.932;10.980;2024-03-07T05:07:47;30.10;;;26.27;;
29210;SDS011;16250;49.932;10.980;2024-03-07T05:10:14;25.40;;;22.75;;
29210;SDS011;16250;49.932;10.980;2024-03-07T05:12:40;25.58;;;22.88;;
29210;SDS011;16250;49.932;10.980;2024-03-07T05:15:05;25.23;;;22.63;;
29210;SDS011;16250;49.932;10.980;2024-03-07T05:17:34;37.72;;;34.28;;
29210;SDS011;16250;49.932;10.980;2024-03-07T05:20:03;30.83;;;27.70;;
29210;SDS011;16250;49.932;10.980;2024-03-07T05:22:44;30.05;;;27.05;;
29210;SDS011;16250;49.932;10.980;2024-03-07T05:25:16;27.23;;;24.52;;
29210;SDS011;16250;49.932;10.980;2024-03-07T05:27:43;27.05;;;24.25;;
29210;SDS011;16250;49.932;10.980;2024-03-07T05:30:09;28.98;;;22.90;;
29210;SDS011;16250;49.932;10.980;2024-03-07T05:32:36;28.05;;;25.00;;
29210;SDS011;16250;49.932;10.980;2024-03-07T05:35:02;25.80;;;22.00;;
29210;SDS011;16250;49.932;10.980;2024-03-07T05:37:28;25.73;;;22.77;;
29210;SDS011;16250;49.932;10.980;2024-03-07T05:39:54;24.95;;;21.75;;
29210;SDS011;16250;49.932;10.980;2024-03-07T05:42:21;24.20;;;21.50;;
29210;SDS011;16250;49.932;10.980;2024-03-07T05:44:47;24.48;;;21.63;;
29210;SDS011;16250;49.932;10.980;2024-03-07T05:47:12;24.58;;;21.90;;
29210;SDS011;16250;49.932;10.980;2024-03-07T05:49:38;27.58;;;22.85;;
29210;SDS011;16250;49.932;10.980;2024-03-07T05:52:04;26.17;;;23.38;;
29210;SDS011;16250;49.932;10.980;2024-03-07T05:54:31;27.10;;;23.58;;
29210;SDS011;16250;49.932;10.980;2024-03-07T05:56:57;28.77;;;24.88;;
29210;SDS011;16250;49.932;10.980;2024-03-07T05:59:22;26.60;;;23.67;;
29210;SDS011;16250;49.932;10.980;2024-03-07T06:01:48;25.95;;;23.15;;
29210;SDS011;16250;49.932;10.980;2024-03-07T06:04:13;30.73;;;25.05;;
29210;SDS011;16250;49.932;10.980;2024-03-07T06:06:40;26.83;;;23.33;;
29210;SDS011;16250;49.932;10.980;2024-03-07T06:09:07;25.88;;;22.90;;
29210;SDS011;16250;49.932;10.980;2024-03-07T06:11:37;26.33;;;23.58;;
29210;SDS011;16250;49.932;10.980;2024-03-07T06:14:04;25.40;;;22.58;;
29210;SDS011;16250;49.932;10.980;2024-03-07T06:16:31;28.63;;;23.50;;
29210;SDS011;16250;49.932;10.980;2024-03-07T06:19:00;29.83;;;24.60;;
29210;SDS011;16250;49.932;10.980;2024-03-07T06:21:26;29.05;;;23.88;;
29210;SDS011;16250;49.932;10.980;2024-03-07T06:23:53;26.92;;;22.98;;
29210;SDS011;16250;49.932;10.980;2024-03-07T06:26:25;28.95;;;24.80;;
29210;SDS011;16250;49.932;10.980;2024-03-07T06:29:05;30.73;;;24.98;;
29210;SDS011;16250;49.932;10.980;2024-03-07T06:31:31;26.98;;;23.20;;
29210;SDS011;16250;49.932;10.980;2024-03-07T06:33:56;27.13;;;24.23;;
29210;SDS011;16250;49.932;10.980;2024-03-07T06:36:22;31.80;;;25.60;;
29210;SDS011;16250;49.932;10.980;2024-03-07T06:38:48;34.88;;;26.98;;
29210;SDS011;16250;49.932;10.980;2024-03-07T06:41:14;29.55;;;25.10;;
29210;SDS011;16250;49.932;10.980;2024-03-07T06:43:39;32.08;;;24.13;;
29210;SDS011;16250;49.932;10.980;2024-03-07T06:46:04;28.48;;;24.50;;
29210;SDS011;16250;49.932;10.980;2024-03-07T06:48:31;28.45;;;25.35;;
29210;SDS011;16250;49.932;10.980;2024-03-07T06:50:56;30.42;;;25.08;;
29210;SDS011;16250;49.932;10.980;2024-03-07T06:53:22;31.08;;;26.25;;
29210;SDS011;16250;49.932;10.980;2024-03-07T06:55:51;29.77;;;25.40;;
29210;SDS011;16250;49.932;10.980;2024-03-07T06:58:19;27.98;;;24.95;;
29210;SDS011;16250;49.932;10.980;2024-03-07T07:00:45;31.75;;;27.23;;
29210;SDS011;16250;49.932;10.980;2024-03-07T07:03:11;29.63;;;24.98;;
29210;SDS011;16250;49.932;10.980;2024-03-07T07:05:38;30.88;;;25.95;;
29210;SDS011;16250;49.932;10.980;2024-03-07T07:08:06;32.58;;;28.00;;
29210;SDS011;16250;49.932;10.980;2024-03-07T07:10:31;34.70;;;28.52;;
29210;SDS011;16250;49.932;10.980;2024-03-07T07:12:57;32.90;;;28.08;;
29210;SDS011;16250;49.932;10.980;2024-03-07T07:15:22;34.28;;;28.08;;
29210;SDS011;16250;49.932;10.980;2024-03-07T07:17:48;36.72;;;29.58;;
29210;SDS011;16250;49.932;10.980;2024-03-07T07:20:14;35.78;;;29.25;;
29210;SDS011;16250;49.932;10.980;2024-03-07T07:22:44;35.35;;;29.55;;
29210;SDS011;16250;49.932;10.980;2024-03-07T07:25:11;37.58;;;30.48;;
29210;SDS011;16250;49.932;10.980;2024-03-07T07:27:47;37.83;;;30.67;;
29210;SDS011;16250;49.932;10.980;2024-03-07T07:30:17;40.05;;;31.00;;
29210;SDS011;16250;49.932;10.980;2024-03-07T07:32:43;41.20;;;32.08;;
29210;SDS011;16250;49.932;10.980;2024-03-07T07:35:11;42.50;;;33.05;;
29210;SDS011;16250;49.932;10.980;2024-03-07T07:37:40;39.08;;;31.30;;
29210;SDS011;16250;49.932;10.980;2024-03-07T07:40:10;36.65;;;31.15;;
29210;SDS011;16250;49.932;10.980;2024-03-07T07:42:40;38.35;;;31.45;;
29210;SDS011;16250;49.932;10.980;2024-03-07T07:45:07;37.45;;;30.23;;
29210;SDS011;16250;49.932;10.980;2024-03-07T07:47:40;37.00;;;30.33;;
29210;SDS011;16250;49.932;10.980;2024-03-07T07:50:10;37.33;;;30.23;;
29210;SDS011;16250;49.932;10.980;2024-03-07T07:52:52;35.80;;;28.67;;
29210;SDS011;16250;49.932;10.980;2024-03-07T07:55:28;34.28;;;28.50;;
29210;SDS011;16250;49.932;10.980;2024-03-07T07:57:55;36.25;;;29.13;;
29210;SDS011;16250;49.932;10.980;2024-03-07T08:00:24;35.78;;;28.55;;
29210;SDS011;16250;49.932;10.980;2024-03-07T08:02:55;33.20;;;26.02;;
29210;SDS011;16250;49.932;10.980;2024-03-07T08:05:24;32.80;;;25.90;;
29210;SDS011;16250;49.932;10.980;2024-03-07T08:07:51;30.48;;;25.77;;
29210;SDS011;16250;49.932;10.980;2024-03-07T08:10:20;29.90;;;24.90;;
29210;SDS011;16250;49.932;10.980;2024-03-07T08:12:48;26.42;;;22.08;;
29210;SDS011;16250;49.932;10.980;2024-03-07T08:15:15;26.73;;;21.77;;
29210;SDS011;16250;49.932;10.980;2024-03-07T08:17:41;29.08;;;23.52;;
29210;SDS011;16250;49.932;10.980;2024-03-07T08:20:08;27.55;;;22.90;;
29210;SDS011;16250;49.932;10.980;2024-03-07T08:22:37;28.10;;;23.13;;
29210;SDS011;16250;49.932;10.980;2024-03-07T08:25:03;27.40;;;22.92;;
29210;SDS011;16250;49.932;10.980;2024-03-07T08:27:34;26.17;;;22.23;;
29210;SDS011;16250;49.932;10.980;2024-03-07T08:30:01;26.38;;;21.40;;
29210;SDS011;16250;49.932;10.980;2024-03-07T08:32:27;24.42;;;21.00;;
29210;SDS011;16250;49.932;10.980;2024-03-07T08:34:52;23.75;;;20.05;;
29210;SDS011;16250;49.932;10.980;2024-03-07T08:37:18;24.55;;;20.73;;
29210;SDS011;16250;49.932;10.980;2024-03-07T08:39:43;25.55;;;20.75;;
29210;SDS011;16250;49.932;10.980;2024-03-07T08:42:09;22.13;;;19.65;;
29210;SDS011;16250;49.932;10.980;2024-03-07T08:44:34;22.42;;;18.90;;
29210;SDS011;16250;49.932;10.980;2024-03-07T08:46:59;22.27;;;19.48;;
29210;SDS011;16250;49.932;10.980;2024-03-07T08:49:25;24.38;;;20.13;;
29210;SDS011;16250;49.932;10.980;2024-03-07T08:51:50;26.02;;;21.50;;
29210;SDS011;16250;49.932;10.980;2024-03-07T08:54:15;24.70;;;20.95;;
29210;SDS011;16250;49.932;10.980;2024-03-07T08:56:41;23.90;;;19.52;;
29210;SDS011;16250;49.932;10.980;2024-03-07T08:59:06;22.25;;;19.38;;
29210;SDS011;16250;49.932;10.980;2024-03-07T09:01:32;22.90;;;19.55;;
29210;SDS011;16250;49.932;10.980;2024-03-07T09:03:57;23.65;;;19.92;;
29210;SDS011;16250;49.932;10.980;2024-03-07T09:06:24;21.25;;;18.90;;
29210;SDS011;16250;49.932;10.980;2024-03-07T09:08:50;20.20;;;17.95;;
29210;SDS011;16250;49.932;10.980;2024-03-07T09:11:15;21.65;;;17.95;;
29210;SDS011;16250;49.932;10.980;2024-03-07T09:13:40;19.15;;;17.15;;
29210;SDS011;16250;49.932;10.980;2024-03-07T09:16:06;21.50;;;17.77;;
29210;SDS011;16250;49.932;10.980;2024-03-07T09:18:32;20.25;;;17.63;;
29210;SDS011;16250;49.932;10.980;2024-03-07T09:20:58;19.05;;;16.02;;
29210;SDS011;16250;49.932;10.980;2024-03-07T09:23:23;20.17;;;17.05;;
29210;SDS011;16250;49.932;10.980;2024-03-07T09:25:48;19.38;;;16.42;;
29210;SDS011;16250;49.932;10.980;2024-03-07T09:28:14;22.60;;;17.55;;
29210;SDS011;16250;49.932;10.980;2024-03-07T09:30:40;21.80;;;18.10;;
29210;SDS011;16250;49.932;10.980;2024-03-07T09:33:06;21.60;;;17.17;;
29210;SDS011;16250;49.932;10.980;2024-03-07T09:35:36;22.38;;;18.02;;
29210;SDS011;16250;49.932;10.980;2024-03-07T09:38:02;24.25;;;18.50;;
29210;SDS011;16250;49.932;10.980;2024-03-07T09:40:28;22.40;;;18.20;;
29210;SDS011;16250;49.932;10.980;2024-03-07T09:42:53;21.20;;;17.80;;
29210;SDS011;16250;49.932;10.980;2024-03-07T09:45:21;23.45;;;18.42;;
29210;SDS011;16250;49.932;10.980;2024-03-07T09:47:48;21.85;;;17.15;;
29210;SDS011;16250;49.932;10.980;2024-03-07T09:50:19;21.70;;;17.45;;
29210;SDS011;16250;49.932;10.980;2024-03-07T09:52:48;22.33;;;17.60;;
29210;SDS011;16250;49.932;10.980;2024-03-07T09:55:15;22.60;;;17.60;;
29210;SDS011;16250;49.932;10.980;2024-03-07T09:57:48;20.50;;;17.85;;
29210;SDS011;16250;49.932;10.980;2024-03-07T10:00:15;18.65;;;15.95;;
29210;SDS011;16250;49.932;10.980;2024-03-07T10:02:58;19.30;;;15.52;;
29210;SDS011;16250;49.932;10.980;2024-03-07T10:05:27;18.17;;;14.98;;
29210;SDS011;16250;49.932;10.980;2024-03-07T10:07:53;19.90;;;15.63;;
29210;SDS011;16250;49.932;10.980;2024-03-07T10:10:19;19.58;;;15.95;;
29210;SDS011;16250;49.932;10.980;2024-03-07T10:12:44;19.63;;;15.20;;
29210;SDS011;16250;49.932;10.980;2024-03-07T10:15:10;19.40;;;15.52;;
29210;SDS011;16250;49.932;10.980;2024-03-07T10:17:38;21.73;;;16.45;;
29210;SDS011;16250;49.932;10.980;2024-03-07T10:20:04;21.80;;;16.00;;
29210;SDS011;16250;49.932;10.980;2024-03-07T10:22:34;18.40;;;15.38;;
29210;SDS011;16250;49.932;10.980;2024-03-07T10:25:01;22.35;;;16.60;;
29210;SDS011;16250;49.932;10.980;2024-03-07T10:27:31;18.83;;;15.55;;
29210;SDS011;16250;49.932;10.980;2024-03-07T10:29:57;18.48;;;15.52;;
29210;SDS011;16250;49.932;10.980;2024-03-07T10:32:22;19.23;;;15.45;;
29210;SDS011;16250;49.932;10.980;2024-03-07T10:34:50;18.83;;;15.85;;
29210;SDS011;16250;49.932;10.980;2024-03-07T10:37:15;18.75;;;16.33;;
29210;SDS011;16250;49.932;10.980;2024-03-07T10:39:45;18.75;;;15.95;;
29210;SDS011;16250;49.932;10.980;2024-03-07T10:42:14;18.00;;;15.30;;
29210;SDS011;16250;49.932;10.980;2024-03-07T10:44:43;17.52;;;13.98;;
29210;SDS011;16250;49.932;10.980;2024-03-07T10:47:11;17.23;;;13.52;;
29210;SDS011;16250;49.932;10.980;2024-03-07T10:49:41;16.85;;;14.05;;
29210;SDS011;16250;49.932;10.980;2024-03-07T10:52:13;15.15;;;13.00;;
29210;SDS011;16250;49.932;10.980;2024-03-07T10:57:22;16.48;;;13.20;;
29210;SDS011;16250;49.932;10.980;2024-03-07T10:59:55;15.25;;;12.10;;
29210;SDS011;16250;49.932;10.980;2024-03-07T11:04:49;16.67;;;11.88;;
29210;SDS011;16250;49.932;10.980;2024-03-07T11:07:17;13.13;;;11.52;;
29210;SDS011;16250;49.932;10.980;2024-03-07T11:09:43;15.95;;;13.00;;
29210;SDS011;16250;49.932;10.980;2024-03-07T11:12:11;15.23;;;12.80;;
29210;SDS011;16250;49.932;10.980;2024-03-07T11:14:37;16.42;;;13.38;;
29210;SDS011;16250;49.932;10.980;2024-03-07T11:17:03;15.07;;;12.52;;
29210;SDS011;16250;49.932;10.980;2024-03-07T11:19:31;15.35;;;13.13;;
29210;SDS011;16250;49.932;10.980;2024-03-07T11:22:01;18.23;;;13.73;;
29210;SDS011;16250;49.932;10.980;2024-03-07T11:24:28;18.73;;;14.20;;
29210;SDS011;16250;49.932;10.980;2024-03-07T11:26:55;17.35;;;13.65;;
29210;SDS011;16250;49.932;10.980;2024-03-07T11:32:13;15.23;;;12.90;;
29210;SDS011;16250;49.932;10.980;2024-03-07T11:34:40;15.55;;;13.60;;
29210;SDS011;16250;49.932;10.980;2024-03-07T11:37:16;18.63;;;14.88;;
29210;SDS011;16250;49.932;10.980;2024-03-07T11:39:49;18.73;;;14.48;;
29210;SDS011;16250;49.932;10.980;2024-03-07T11:42:27;16.85;;;14.18;;
29210;SDS011;16250;49.932;10.980;2024-03-07T11:44:56;17.73;;;14.50;;
29210;SDS011;16250;49.932;10.980;2024-03-07T11:47:23;20.25;;;15.07;;
29210;SDS011;16250;49.932;10.980;2024-03-07T11:49:50;19.33;;;14.70;;
29210;SDS011;16250;49.932;10.980;2024-03-07T11:52:17;18.85;;;15.63;;
29210;SDS011;16250;49.932;10.980;2024-03-07T11:54:43;21.05;;;15.65;;
29210;SDS011;16250;49.932;10.980;2024-03-07T11:57:11;19.13;;;16.17;;
29210;SDS011;16250;49.932;10.980;2024-03-07T11:59:41;19.17;;;15.30;;
29210;SDS011;16250;49.932;10.980;2024-03-07T12:02:13;19.52;;;15.90;;
29210;SDS011;16250;49.932;10.980;2024-03-07T12:04:43;20.20;;;16.77;;
29210;SDS011;16250;49.932;10.980;2024-03-07T12:07:08;21.45;;;16.48;;
29210;SDS011;16250;49.932;10.980;2024-03-07T12:09:39;18.98;;;15.77;;
29210;SDS011;16250;49.932;10.980;2024-03-07T12:12:07;22.70;;;17.80;;
29210;SDS011;16250;49.932;10.980;2024-03-07T12:14:34;22.02;;;18.70;;
29210;SDS011;16250;49.932;10.980;2024-03-07T12:17:03;24.55;;;19.40;;
29210;SDS011;16250;49.932;10.980;2024-03-07T12:19:29;26.67;;;19.98;;
29210;SDS011;16250;49.932;10.980;2024-03-07T12:22:01;27.40;;;19.92;;
29210;SDS011;16250;49.932;10.980;2024-03-07T12:24:27;24.50;;;19.45;;
29210;SDS011;16250;49.932;10.980;2024-03-07T12:27:04;25.58;;;19.85;;
29210;SDS011;16250;49.932;10.980;2024-03-07T12:29:30;23.20;;;18.98;;
29210;SDS011;16250;49.932;10.980;2024-03-07T12:31:55;23.95;;;19.42;;
29210;SDS011;16250;49.932;10.980;2024-03-07T12:34:21;25.52;;;20.17;;
29210;SDS011;16250;49.932;10.980;2024-03-07T12:36:46;23.75;;;19.00;;
29210;SDS011;16250;49.932;10.980;2024-03-07T12:39:27;22.92;;;19.33;;
29210;SDS011;16250;49.932;10.980;2024-03-07T12:41:58;22.17;;;18.55;;
29210;SDS011;16250;49.932;10.980;2024-03-07T12:44:23;25.70;;;19.08;;
29210;SDS011;16250;49.932;10.980;2024-03-07T12:46:51;24.65;;;19.20;;
29210;SDS011;16250;49.932;10.980;2024-03-07T12:49:21;22.13;;;18.40;;
29210;SDS011;16250;49.932;10.980;2024-03-07T12:51:49;24.20;;;18.70;;
29210;SDS011;16250;49.932;10.980;2024-03-07T12:54:15;23.10;;;18.48;;
29210;SDS011;16250;49.932;10.980;2024-03-07T12:56:41;21.83;;;17.98;;
29210;SDS011;16250;49.932;10.980;2024-03-07T12:59:06;24.50;;;18.90;;
29210;SDS011;16250;49.932;10.980;2024-03-07T13:01:35;22.55;;;18.77;;
29210;SDS011;16250;49.932;10.980;2024-03-07T13:04:05;24.67;;;19.35;;
29210;SDS011;16250;49.932;10.980;2024-03-07T13:06:33;23.73;;;18.98;;
29210;SDS011;16250;49.932;10.980;2024-03-07T13:08:59;23.35;;;18.80;;
29210;SDS011;16250;49.932;10.980;2024-03-07T13:11:25;23.85;;;19.60;;
29210;SDS011;16250;49.932;10.980;2024-03-07T13:13:55;22.83;;;18.42;;
29210;SDS011;16250;49.932;10.980;2024-03-07T13:16:21;25.90;;;19.70;;
29210;SDS011;16250;49.932;10.980;2024-03-07T13:18:56;24.90;;;19.80;;
29210;SDS011;16250;49.932;10.980;2024-03-07T13:21:21;23.38;;;19.13;;
29210;SDS011;16250;49.932;10.980;2024-03-07T13:23:47;23.23;;;18.33;;
29210;SDS011;16250;49.932;10.980;2024-03-07T13:26:12;23.83;;;18.65;;
29210;SDS011;16250;49.932;10.980;2024-03-07T13:28:42;20.67;;;16.52;;
29210;SDS011;16250;49.932;10.980;2024-03-07T13:31:09;27.95;;;16.65;;
29210;SDS011;16250;49.932;10.980;2024-03-07T13:33:37;21.13;;;17.75;;
29210;SDS011;16250;49.932;10.980;2024-03-07T13:36:02;22.38;;;16.90;;
29210;SDS011;16250;49.932;10.980;2024-03-07T13:38:29;22.63;;;17.05;;
29210;SDS011;16250;49.932;10.980;2024-03-07T13:40:55;21.50;;;18.08;;
29210;SDS011;16250;49.932;10.980;2024-03-07T13:43:22;21.27;;;17.42;;
29210;SDS011;16250;49.932;10.980;2024-03-07T13:45:47;21.50;;;17.33;;
29210;SDS011;16250;49.932;10.980;2024-03-07T13:48:14;21.83;;;16.83;;
29210;SDS011;16250;49.932;10.980;2024-03-07T13:50:42;21.80;;;17.52;;
29210;SDS011;16250;49.932;10.980;2024-03-07T13:53:13;21.83;;;17.10;;
29210;SDS011;16250;49.932;10.980;2024-03-07T13:55:55;22.85;;;17.13;;
29210;SDS011;16250;49.932;10.980;2024-03-07T14:03:47;20.40;;;16.35;;
29210;SDS011;16250;49.932;10.980;2024-03-07T14:31:47;17.70;;;14.82;;
29210;SDS011;16250;49.932;10.980;2024-03-07T14:37:11;18.25;;;14.63;;
29210;SDS011;16250;49.932;10.980;2024-03-07T14:39:45;19.00;;;15.75;;
29210;SDS011;16250;49.932;10.980;2024-03-07T14:42:13;20.52;;;16.60;;
29210;SDS011;16250;49.932;10.980;2024-03-07T14:44:42;23.67;;;19.25;;
29210;SDS011;16250;49.932;10.980;2024-03-07T14:47:08;26.00;;;21.00;;
29210;SDS011;16250;49.932;10.980;2024-03-07T14:49:36;25.48;;;20.05;;
29210;SDS011;16250;49.932;10.980;2024-03-07T14:52:02;22.90;;;18.30;;
29210;SDS011;16250;49.932;10.980;2024-03-07T14:54:28;24.77;;;20.58;;